Aeroporto :
LOGIN :

Iscrizione | Disclaimer

   EN    FR    IT 

 










Sommario :    VFR   VFR Marginale   IFR   IFR Intensivo   IFR Molto Intensivo
Visibilità : 
Base nubi : 
>= 8 km
>= 3000ft
5 / 8 km
1000 / 3000 ft
1500m / 5 km
500 / 1000 ft
800 / 1500m
200 / 500 ft
< 800m
< 200 ft
Simboli :   Temporali  Nebbia  Neve Forte  Precipitazioni Forti  Vento > 20 kt
SIGMETs :   Varie  Temporali  Ghiacco  Turbolenza  Onda orograficha  Ceneri Vulcaniche






- Altitudine del aeroporto : 245 ft
- Codice IATA : BIQ


LFBZ - Biarritz

ULTIMO METAR :
  • 211630Z AUTO 18004KT 150V220 9999 ///CB 12/06 Q1005 BECMG NSC

METARs OBSOLETI :
  • 211600Z AUTO 20006KT 160V270 9999 ///CB 13/06 Q1005 BECMG NSC
  • 211530Z AUTO 19006KT 120V230 9999 ///CB 14/07 Q1004 BECMG NSC
  • 211500Z AUTO 20007KT 140V250 9999 FEW066 SCT150 15/06 Q1004 TEMPO SCT030TCU BKN045
  • 211430Z AUTO 20008KT 160V260 9999 FEW052 SCT150 14/06 Q1004 TEMPO SCT030TCU BKN045
  • 211400Z AUTO 20006KT 150V250 9999 SCT049 BKN060 BKN072 14/06 Q1004 TEMPO SCT030TCU BKN045
  • 211330Z AUTO 20006KT 150V260 9999 BKN056 14/06 Q1004 TEMPO SCT030TCU BKN045

TAF TAF LFBZ
Valido dal 21 a 12 ore il 22 a 12 ore UTC


211100Z 2112/2212 19010KT CAVOK
TEMPO 2112/2117 SCT030TCU BKN045
PROB40
TEMPO 2209/2212 18015G30KT



MetMap, La meteo Aeronautica in un colpo d'occhio ! - Copyright ORBIFLY Dicembre 2007 - Disclaimer

ORBIFLY MET'MAP TEAM :

Programmazione e sviluppo : Alexandra Zaïnal
Concezione e sviluppo : Baudouin d'Aumeries
Co-Programmazione e sviluppo : Marc-Olivier Méhu
Supporto tecnico e logistico : Manuel Goepfert
Aiuto per la traduzione : Arnaldo La Scala

Contatto : metmap@orbifly.com




FONTI E CREDITI :

   NOAA